Latest Weather Observations for Maroochydore

IDQ60801

Issued at 8:02 am EST Thursday 2 April 2015 (issued every 30 minutes, with the page automatically refreshed every 10 minutes)

About weather observations | Map of weather stations | Latest weather observations for QLD | Other Formats
Station Details ID: 040861 Name: SUNSHINE COAST AIRPORT Lat: -26.60 Lon: 153.09 Height: 3.3 m
Data from the previous 72 hours. | See also: Recent months at Maroochydore
Date/Time
EST
Temp
°C
App
Temp
°C
Dew
Point
Rel
Hum
%
Delta-T
°C
Wind Press
QNH
hPa
Press
MSL
hPa
Rain
since 9 am
mm
Dir
 
Spd
km/h
Gust
km/h
Spd
kts
Gust
kts
02/07:30am 24.2 23.7 20.7 81 2.3 E 24 35 13 19 1017.7 - 17.8
02/07:00am 24.0 22.6 20.5 81 2.3 ESE 28 41 15 22 1017.3 - 17.8
02/06:34am 23.1 21.8 20.6 86 1.6 ESE 28 35 15 19 1017.0 - 17.8
02/06:30am 21.5 22.5 19.4 88 1.3 S 13 17 7 9 1017.0 - 17.8
02/05:30am 20.5 20.5 19.0 91 0.9 SSW 17 22 9 12 1016.6 - 17.8
02/05:00am 20.3 19.4 19.0 92 0.8 S 22 32 12 17 1016.7 - 17.8
02/04:30am 20.2 20.2 19.0 93 0.8 SSE 17 20 9 11 1016.5 - 17.8
02/04:00am 20.3 19.4 19.0 92 0.8 S 22 30 12 16 1016.2 - 17.8
02/03:30am 20.3 19.4 19.0 92 0.8 S 22 26 12 14 1016.5 - 17.8
02/03:00am 20.3 19.8 19.0 92 0.8 S 20 30 11 16 1016.6 1016.6 17.8
02/02:30am 20.4 19.9 19.2 93 0.8 S 20 26 11 14 1016.8 - 17.8
02/02:14am 20.5 20.0 19.2 92 0.8 S 20 26 11 14 1016.9 - 17.8
02/02:00am 20.9 20.8 19.6 92 0.8 S 19 30 10 16 1017.1 - 17.8
02/01:56am 20.9 21.6 19.6 92 0.8 S 15 20 8 11 1017.1 - 17.8
02/01:30am 21.3 21.4 19.9 92 0.9 S 19 24 10 13 1017.4 - 17.8
02/01:00am 22.2 23.6 20.3 89 1.2 SSE 13 17 7 9 1017.9 - 17.8
02/12:30am 22.2 22.6 20.7 91 1.0 SSE 19 28 10 15 1018.2 - 17.6
02/12:28am 22.1 22.2 20.4 90 1.1 SE 20 30 11 16 1018.2 - 17.6
02/12:24am 21.9 21.4 20.0 89 1.2 SE 22 35 12 19 1018.3 - 17.6
02/12:11am 22.5 22.2 20.4 88 1.4 SE 22 33 12 18 1018.2 - 17.6
02/12:10am 22.4 22.0 20.1 87 1.5 SE 22 33 12 18 1018.2 - 17.4
 
Date/Time
EST
Temp
°C
App
Temp
°C
Dew
Point
Rel
Hum
%
Delta-T
°C
Wind Press
QNH
hPa
Press
MSL
hPa
Rain
since 9 am
mm
Dir
 
Spd
km/h
Gust
km/h
Spd
kts
Gust
kts
01/11:30pm 23.0 22.8 19.8 82 2.1 ESE 20 26 11 14 1018.7 - 15.8
01/11:10pm 22.7 22.7 20.2 86 1.6 SE 20 28 11 15 1018.8 - 15.8
01/11:00pm 22.8 23.0 20.5 87 1.5 SE 20 30 11 16 1018.7 - 15.8
01/10:51pm 23.2 23.9 20.5 85 1.8 ESE 17 20 9 11 1018.8 - 15.8
01/10:30pm 23.0 22.9 19.6 81 2.2 E 19 24 10 13 1019.1 - 15.8
01/10:00pm 22.6 21.9 19.6 83 1.9 E 22 28 12 15 1019.1 - 15.8
01/09:30pm 21.9 20.5 19.6 87 1.5 ENE 26 33 14 18 1019.4 - 15.8
01/09:10pm 21.9 21.3 20.4 91 1.0 ENE 24 33 13 18 1019.4 - 15.6
01/09:00pm 21.1 18.8 19.4 90 1.1 ENE 30 43 16 23 1019.5 1019.5 15.4
01/08:42pm 22.0 19.6 20.3 90 1.1 E 33 44 18 24 1019.5 - 15.0
01/08:38pm 21.7 18.3 19.1 85 1.6 NE 35 54 19 29 1019.3 - 14.6
01/08:37pm 21.8 18.5 19.2 85 1.6 NE 35 54 19 29 1019.2 - 14.4
01/08:31pm 22.3 18.6 19.1 82 2.0 NE 37 43 20 23 1019.1 - 14.2
01/08:30pm 23.0 21.7 19.8 82 2.1 E 26 41 14 22 1019.1 - 14.2
01/08:00pm 23.6 22.9 19.5 78 2.6 E 22 32 12 17 1019.1 - 14.2
01/07:30pm 22.9 20.7 18.7 77 2.7 ENE 28 39 15 21 1019.1 - 14.2
01/07:00pm 23.0 20.7 19.4 80 2.3 ENE 30 41 16 22 1018.8 - 14.2
01/06:30pm 22.9 20.3 18.7 77 2.7 E 30 41 16 22 1018.5 - 14.2
01/06:00pm 22.7 19.8 18.9 79 2.4 E 32 43 17 23 1018.2 1018.2 14.2
01/05:30pm 23.7 21.6 19.0 75 3.0 E 28 43 15 23 1017.8 - 14.2
01/05:00pm 23.2 20.8 19.1 78 2.6 E 30 39 16 21 1017.8 - 14.2
01/04:30pm 24.0 22.3 18.2 70 3.6 E 24 32 13 17 1017.7 - 14.2
01/04:00pm 24.1 22.6 18.5 71 3.5 E 24 35 13 19 1017.6 - 14.0
01/03:30pm 23.9 21.2 17.6 68 3.9 ESE 28 35 15 19 1017.7 - 14.0
01/03:00pm 23.6 21.5 18.0 71 3.5 ESE 26 33 14 18 1017.7 1017.7 14.0
01/02:30pm 24.1 22.6 18.5 71 3.5 ESE 24 32 13 17 1018.1 - 14.0
01/02:00pm 23.8 22.1 18.9 74 3.1 ESE 26 35 14 19 1018.3 - 14.0
01/01:30pm 23.1 21.9 19.3 79 2.4 ESE 24 35 13 19 1018.6 - 14.0
01/01:00pm 21.0 21.9 20.0 94 0.6 SSW 15 19 8 10 1019.0 - 14.0
01/12:30pm 20.4 21.4 19.4 94 0.6 SW 13 19 7 10 1019.6 - 13.8
01/12:00pm 20.2 20.3 19.2 94 0.6 SW 17 22 9 12 1020.0 1020.0 13.2
01/11:58am 20.2 19.9 19.2 94 0.6 SW 19 22 10 12 1020.0 - 13.2
01/11:38am 19.9 20.3 18.9 94 0.6 WSW 15 19 8 10 1020.4 - 12.0
01/11:36am 20.0 20.4 19.0 94 0.6 SW 15 19 8 10 1020.6 - 10.8
01/11:30am 20.1 20.1 18.9 93 0.8 WSW 17 20 9 11 1020.4 - 9.6
01/11:00am 20.3 21.4 18.8 91 0.9 SW 11 19 6 10 1021.1 - 9.2
01/10:52am 20.6 21.2 18.7 89 1.2 S 13 17 7 9 1021.1 - 8.8
01/10:30am 21.6 22.6 20.2 92 0.9 E 15 20 8 11 1021.5 - 8.2
01/10:07am 21.1 20.4 19.6 91 1.0 E 22 33 12 18 1021.9 - 7.2
01/10:00am 20.9 20.2 19.4 91 1.0 E 22 33 12 18 1021.9 - 6.8
01/09:34am 21.0 18.2 19.1 89 1.2 E 32 50 17 27 1022.1 - 2.2
01/09:32am 21.3 19.6 19.8 91 1.0 E 28 46 15 25 1022.1 - 2.0
01/09:30am 21.8 20.7 20.3 91 1.0 E 26 35 14 19 1022.1 - 1.6
01/09:14am 20.8 19.1 18.9 89 1.2 E 26 33 14 18 1021.8 - 0.8
01/09:07am 20.8 19.2 19.3 91 0.9 E 26 35 14 19 1021.9 - 0.6
01/09:00am 20.9 19.9 19.6 92 0.8 E 24 39 13 21 1022.1 1022.1 65.6
01/08:30am 19.9 19.4 18.7 93 0.7 N 19 30 10 16 1021.6 - 63.2
01/08:24am 20.4 19.7 19.4 94 0.6 N 22 30 12 16 1021.6 - 62.6
01/08:17am 20.8 19.0 19.6 93 0.8 ENE 28 43 15 23 1021.5 - 59.8
01/08:00am 20.9 21.2 19.7 93 0.8 E 17 22 9 12 1021.5 - 52.4
01/07:43am 20.6 19.4 19.3 92 0.8 NE 24 35 13 19 1021.1 - 50.4
01/07:30am 20.7 18.0 19.2 91 0.9 NE 32 44 17 24 1020.9 - 50.0
01/07:00am 21.2 19.3 19.3 89 1.2 ENE 28 39 15 21 1020.3 - 49.2
01/06:30am 21.5 21.6 20.3 93 0.8 E 20 30 11 16 1019.7 - 49.2
01/06:15am 20.2 21.2 19.4 95 0.5 SSE 13 17 7 9 1019.5 - 49.2
01/06:00am 20.1 19.9 19.3 95 0.5 SW 19 26 10 14 1019.1 1019.1 49.2
01/05:59am 20.0 19.7 19.2 95 0.5 SW 19 24 10 13 1019.1 - 49.0
01/05:57am 20.0 20.1 19.2 95 0.5 SW 17 24 9 13 1019.2 - 48.6
01/05:40am 19.9 20.7 19.1 95 0.5 SW 13 19 7 10 1019.2 - 48.0
01/05:30am 19.8 20.2 19.0 95 0.5 SW 15 20 8 11 1019.1 - 48.0
01/05:00am 19.7 19.7 18.9 95 0.5 WSW 17 22 9 12 1018.9 - 48.0
01/04:34am 20.0 20.9 19.2 95 0.5 SW 13 17 7 9 1018.6 - 47.8
01/04:33am 20.0 20.9 19.2 95 0.5 SW 13 17 7 9 1018.5 - 47.8
01/04:30am 19.9 21.1 19.1 95 0.5 SW 11 15 6 8 1018.5 - 47.8
01/04:25am 20.0 21.3 19.2 95 0.5 SSW 11 15 6 8 1018.4 - 47.8
01/04:00am 19.8 20.6 19.0 95 0.5 WSW 13 22 7 12 1018.9 - 43.0
01/03:33am 19.8 18.9 19.0 95 0.5 S 22 28 12 15 1018.6 - 18.4
01/03:30am 19.8 19.3 19.0 95 0.5 S 20 28 11 15 1018.6 - 14.2
01/03:00am 19.8 20.9 18.8 94 0.6 SW 11 15 6 8 1018.6 1018.6 7.6
01/02:53am 19.8 20.5 18.8 94 0.6 SSW 13 19 7 10 1018.7 - 6.8
01/02:30am 19.8 19.4 18.8 94 0.6 SW 19 24 10 13 1018.6 - 5.6
01/02:20am 19.9 19.5 18.9 94 0.6 SSW 19 28 10 15 1018.8 - 5.6
01/02:00am 20.0 20.9 19.2 95 0.5 S 13 19 7 10 1019.2 - 4.8
01/01:59am 20.0 20.9 19.2 95 0.5 S 13 17 7 9 1019.3 - 4.4
01/01:30am 19.8 20.5 18.8 94 0.6 WSW 13 19 7 10 1019.1 - 3.6
01/01:10am 19.8 21.3 18.8 94 0.6 WSW 9 13 5 7 1019.5 - 3.6
01/01:00am 19.8 21.6 18.8 94 0.6 W 7 9 4 5 1019.7 - 3.6
01/12:45am 20.0 21.2 19.0 94 0.6 SW 11 15 6 8 1020.0 - 3.6
01/12:30am 20.0 20.8 19.0 94 0.6 WSW 13 17 7 9 1020.3 - 2.8
01/12:00am 20.2 19.8 19.0 93 0.8 SW 19 24 10 13 1020.3 1020.3 2.8
 
Date/Time
EST
Temp
°C
App
Temp
°C
Dew
Point
Rel
Hum
%
Delta-T
°C
Wind Press
QNH
hPa
Press
MSL
hPa
Rain
since 9 am
mm
Dir
 
Spd
km/h
Gust
km/h
Spd
kts
Gust
kts
31/11:43pm 20.4 21.3 19.2 93 0.8 WSW 13 19 7 10 1020.4 - 2.8
31/11:30pm 20.6 20.8 19.3 92 0.8 WSW 17 20 9 11 1020.5 - 2.6
31/11:22pm 20.9 21.8 19.2 90 1.1 NW 13 17 7 9 1020.7 - 1.2
31/11:00pm 21.2 21.7 19.3 89 1.2 SSW 15 20 8 11 1020.9 - 0.0
31/10:30pm 21.5 22.2 18.9 85 1.6 WSW 13 19 7 10 1020.8 - 0.0
31/10:00pm 22.4 21.3 19.4 83 1.9 E 24 35 13 19 1021.2 - 0.0
31/09:30pm 23.5 23.0 18.6 74 3.1 SE 19 26 10 14 1021.6 - 0.0
31/09:00pm 23.5 22.7 18.4 73 3.2 SE 20 28 11 15 1021.5 1021.5 0.0
31/08:30pm 23.7 22.1 19.2 76 2.9 SE 26 33 14 18 1021.2 - 0.0
31/08:00pm 23.5 21.2 18.4 73 3.2 SE 28 35 15 19 1020.7 - 0.0
31/07:30pm 23.4 21.7 18.1 72 3.3 SE 24 30 13 16 1020.7 - 0.0
31/07:00pm 23.4 22.3 18.7 75 3.0 SE 22 37 12 20 1020.6 - 0.0
31/06:30pm 23.6 22.2 18.7 74 3.1 SE 24 32 13 17 1020.4 - 0.0
31/06:00pm 23.4 22.0 18.7 75 3.0 SE 24 33 13 18 1019.9 1019.9 0.0
31/05:30pm 23.1 21.4 18.0 73 3.2 SE 24 33 13 18 1019.8 - 0.0
31/05:00pm 22.9 20.6 18.4 76 2.8 SE 28 37 15 20 1019.8 - 0.0
31/04:30pm 23.1 19.9 18.6 76 2.8 SE 33 44 18 24 1019.9 - 0.0
31/04:26pm 23.0 19.9 18.5 76 2.8 SE 32 44 17 24 1019.9 - 0.0
31/04:00pm 24.3 23.7 18.9 72 3.4 SSE 20 26 11 14 1019.7 - 0.0
31/03:30pm 25.0 24.1 18.2 66 4.3 SE 20 26 11 14 1019.6 - 0.0
31/03:00pm 25.4 25.0 18.1 64 4.6 SE 17 24 9 13 1019.7 1019.7 0.0
31/02:30pm 25.6 24.1 16.7 58 5.5 SE 20 24 11 13 1019.8 - 0.0
31/02:00pm 25.5 24.3 17.4 61 5.1 SE 20 28 11 15 1020.0 - 0.0
31/01:30pm 24.6 22.7 16.8 62 4.8 E 22 32 12 17 1020.4 - 0.0
31/01:00pm 25.7 25.0 17.4 60 5.2 SE 17 20 9 11 1021.0 - 0.0
31/12:30pm 26.8 25.8 17.6 57 5.8 ESE 19 24 10 13 1020.8 - 0.0
31/12:00pm 26.1 25.1 17.5 59 5.4 ESE 19 26 10 14 1021.0 1021.0 0.0
31/11:30am 26.0 25.0 17.6 60 5.3 ESE 19 24 10 13 1021.8 - 0.0
31/11:00am 26.1 25.1 18.0 61 5.1 ESE 20 28 11 15 1021.8 - 0.0
31/10:30am 25.4 24.7 17.3 61 5.0 ESE 17 22 9 12 1022.4 - 0.0
31/10:00am 26.1 25.2 17.7 60 5.3 E 19 26 10 14 1022.2 - 0.0
31/09:30am 26.2 25.8 18.1 61 5.1 E 17 24 9 13 1022.4 - 0.0
31/09:00am 25.0 25.5 17.5 63 4.7 E 11 19 6 10 1022.5 1022.5 0.0
31/08:30am 24.7 25.0 16.9 62 4.8 ESE 11 19 6 10 1022.4 - 0.0
31/08:00am 24.7 24.7 17.2 63 4.7 ESE 13 19 7 10 1022.2 - 0.0
31/07:30am 22.1 25.0 18.1 78 2.5 CALM 0 0 0 0 1021.6 - 0.0
31/07:00am 22.6 23.4 17.3 72 3.3 SSW 9 15 5 8 1021.5 - 0.0
31/06:30am 24.1 23.0 16.4 62 4.7 E 17 24 9 13 1021.2 - 0.0
31/06:00am 23.8 22.2 16.1 62 4.7 E 19 26 10 14 1020.8 1020.8 0.0
31/05:30am 23.4 23.5 17.4 69 3.7 E 13 19 7 10 1020.7 - 0.0
31/05:00am 20.4 22.0 17.8 85 1.6 S 6 7 3 4 1020.7 - 0.0
31/04:30am 19.9 20.9 17.7 87 1.4 WSW 9 13 5 7 1020.5 - 0.0
31/04:00am 19.8 21.7 17.6 87 1.3 SW 4 9 2 5 1020.6 - 0.0
31/03:30am 19.6 20.4 17.4 87 1.3 W 9 15 5 8 1020.6 - 0.0
31/03:00am 19.6 20.1 17.4 87 1.3 WSW 11 15 6 8 1020.7 1020.7 0.0
31/02:30am 19.6 20.0 17.2 86 1.5 W 11 15 6 8 1020.8 - 0.0
31/02:00am 20.3 21.2 16.5 79 2.3 WSW 7 11 4 6 1021.1 - 0.0
31/01:30am 23.8 23.1 16.3 63 4.6 E 15 19 8 10 1021.5 - 0.0
31/01:00am 23.9 22.7 16.2 62 4.7 E 17 22 9 12 1021.7 - 0.0
31/12:30am 23.9 23.1 16.2 62 4.7 E 15 20 8 11 1022.0 - 0.0
31/12:00am 23.9 23.1 16.2 62 4.7 E 15 20 8 11 1022.3 1022.3 0.0
 
Date/Time
EST
Temp
°C
App
Temp
°C
Dew
Point
Rel
Hum
%
Delta-T
°C
Wind Press
QNH
hPa
Press
MSL
hPa
Rain
since 9 am
mm
Dir
 
Spd
km/h
Gust
km/h
Spd
kts
Gust
kts
30/11:30pm 24.1 22.6 16.4 62 4.7 E 19 26 10 14 1022.1 - 0.0
30/11:00pm 24.1 23.1 16.6 63 4.6 E 17 22 9 12 1022.2 - 0.0
30/10:30pm 24.2 23.2 16.5 62 4.7 E 17 20 9 11 1022.5 - 0.0
30/10:00pm 24.2 23.8 17.2 65 4.3 E 15 20 8 11 1022.8 - 0.0
30/09:30pm 24.2 23.9 16.5 62 4.7 ESE 13 17 7 9 1022.9 - 0.0
30/09:00pm 24.1 23.8 16.4 62 4.7 ESE 13 17 7 9 1022.9 1022.9 0.0
30/08:30pm 23.9 23.3 15.7 60 5.0 ESE 13 17 7 9 1022.9 - 0.0
30/08:00pm 23.9 23.5 16.2 62 4.7 ESE 13 20 7 11 1022.7 - 0.0
30/07:30pm 24.0 23.7 16.5 63 4.6 ESE 13 19 7 10 1022.5 - 0.0
30/07:00pm 24.3 24.3 17.1 64 4.5 ESE 13 17 7 9 1022.3 - 0.0
30/06:30pm 24.3 24.1 16.6 62 4.7 E 13 17 7 9 1021.8 - 0.0
30/06:00pm 24.6 23.9 16.3 60 5.1 E 15 20 8 11 1021.3 1021.3 0.0
30/05:30pm 24.6 24.0 16.6 61 4.9 E 15 20 8 11 1021.0 - 0.0
30/05:00pm 24.8 24.5 17.3 63 4.7 E 15 20 8 11 1021.0 - 0.0
30/04:30pm 25.0 24.6 17.2 62 4.8 E 15 19 8 10 1020.6 - 0.0
30/04:00pm 25.3 24.6 16.4 57 5.5 E 15 20 8 11 1020.6 - 0.0
30/03:30pm 25.3 25.0 16.4 57 5.5 E 13 20 7 11 1020.4 - 0.0
30/03:00pm 27.1 26.0 16.4 52 6.6 E 17 20 9 11 1020.4 1020.4 0.0
30/02:30pm 27.0 26.5 16.0 51 6.8 E 13 17 7 9 1020.6 - 0.0
30/02:00pm 26.5 25.5 16.7 55 6.1 E 17 20 9 11 1020.8 - 0.0
30/01:30pm 26.4 25.2 16.0 52 6.4 ENE 17 22 9 12 1021.2 - 0.0
30/01:00pm 28.1 26.9 17.0 51 6.9 E 19 24 10 13 1021.6 - 0.0
30/12:30pm 27.6 26.6 17.5 54 6.4 ENE 19 24 10 13 1021.8 - 0.0
30/12:00pm 27.5 26.2 16.8 52 6.6 E 19 22 10 12 1022.3 1022.3 0.0
30/11:30am 27.9 27.0 16.8 50 6.9 ENE 17 24 9 13 1022.9 - 0.0
30/11:00am 27.4 26.6 17.0 53 6.5 E 17 20 9 11 1023.5 - 0.0
30/10:30am 28.1 27.4 17.3 52 6.8 ENE 17 22 9 12 1023.8 - 0.0
30/10:00am 27.0 26.1 17.8 57 5.8 ENE 19 24 10 13 1023.6 - 0.0
30/09:30am 26.9 25.6 16.8 54 6.3 E 19 24 10 13 1023.6 - 0.0
30/09:00am 26.6 26.3 17.4 57 5.7 E 15 20 8 11 1023.6 1023.6 0.0
30/08:30am 25.1 24.0 17.3 62 4.9 E 19 26 10 14 1023.4 - 0.0

Other Formats:

Comma delimited format used in spreadsheet applications
http://www.bom.gov.au/fwo/IDQ60801/IDQ60801.94569.axf

JavaScript Object Notation format (JSON) in row-major order
http://www.bom.gov.au/fwo/IDQ60801/IDQ60801.94569.json